Time;durP1;ratioP1;P1;durP2;ratioP2;P2;SDS_P1;SDS_P2;PMS_P1;PMS_P2;Temp;Humidity;BMP_temperature;BMP_pressure;BME280_temperature;BME280_humidity;BME280_pressure;Samples;Min_cycle;Max_cycle;Signal;HPM_P1;HPM_P2
2024/01/14 00:02:06;;;;;;;0.40;0.40;;;-2.60;60.00;;;;;;4955546;29;20170;-62
2024/01/14 00:04:32;;;;;;;0.30;0.30;;;-2.70;59.40;;;;;;4955762;29;20173;-62
2024/01/14 00:06:58;;;;;;;0.40;0.40;;;-2.60;60.40;;;;;;4955496;28;20256;-63
2024/01/14 00:09:23;;;;;;;0.40;0.40;;;-2.60;60.90;;;;;;4955303;29;20178;-62
2024/01/14 00:11:49;;;;;;;0.60;0.60;;;-2.50;61.90;;;;;;4954932;29;20177;-63
2024/01/14 00:14:15;;;;;;;0.40;0.40;;;-2.40;60.80;;;;;;4937853;29;20178;-62
2024/01/14 00:16:41;;;;;;;0.43;0.43;;;-2.40;59.80;;;;;;4935069;29;20205;-62
2024/01/14 00:19:07;;;;;;;0.40;0.40;;;-2.50;58.80;;;;;;4936216;29;20205;-62
2024/01/14 00:21:33;;;;;;;0.40;0.40;;;-2.60;58.00;;;;;;4935772;29;20202;-61
2024/01/14 00:23:59;;;;;;;0.30;0.30;;;-2.60;58.30;;;;;;4936547;29;20171;-62
2024/01/14 00:26:27;;;;;;;0.30;0.30;;;-2.60;59.60;;;;;;4936053;29;20198;-62
2024/01/14 00:28:54;;;;;;;0.40;0.40;;;-2.60;60.00;;;;;;4936129;29;20185;-62
2024/01/14 00:31:20;;;;;;;0.40;0.40;;;-2.60;60.10;;;;;;4935773;29;20665;-62
2024/01/14 00:33:45;;;;;;;0.30;0.30;;;-2.50;60.50;;;;;;4936449;29;20186;-62
2024/01/14 00:36:11;;;;;;;0.50;0.50;;;-2.60;60.60;;;;;;4935925;29;20675;-62
2024/01/14 00:38:37;;;;;;;0.70;0.70;;;-2.60;61.10;;;;;;4935654;29;20216;-62
2024/01/14 00:41:04;;;;;;;0.38;0.38;;;-2.60;60.40;;;;;;4935919;29;20185;-62
2024/01/14 00:43:30;;;;;;;0.30;0.30;;;-2.50;59.70;;;;;;4935350;29;20225;-62
2024/01/14 00:45:56;;;;;;;0.30;0.30;;;-2.60;59.40;;;;;;4935589;29;20190;-62
2024/01/14 00:48:21;;;;;;;0.40;0.40;;;-2.60;59.60;;;;;;4935856;29;20406;-62
2024/01/14 00:50:47;;;;;;;0.40;0.40;;;-2.50;59.60;;;;;;4935492;29;20562;-62
2024/01/14 00:53:13;;;;;;;0.70;0.70;;;-2.50;60.80;;;;;;4935711;29;20773;-62
2024/01/14 00:55:39;;;;;;;0.40;0.40;;;-2.50;60.80;;;;;;4935552;29;20248;-62
2024/01/14 00:58:04;;;;;;;0.40;0.40;;;-2.50;60.50;;;;;;4935561;29;20450;-62
2024/01/14 01:00:31;;;;;;;0.40;0.40;;;-2.40;60.20;;;;;;4935372;29;20221;-62
2024/01/14 01:02:57;;;;;;;0.45;0.45;;;-2.40;59.90;;;;;;4935453;29;20202;-62
2024/01/14 01:05:22;;;;;;;0.40;0.40;;;-2.50;59.00;;;;;;4935301;29;20178;-62
2024/01/14 01:07:48;;;;;;;0.40;0.40;;;-2.50;59.10;;;;;;4935400;29;20174;-62
2024/01/14 01:10:14;;;;;;;0.77;0.77;;;-2.50;59.20;;;;;;4935201;29;20422;-63
2024/01/14 01:12:40;;;;;;;0.40;0.40;;;-2.50;60.10;;;;;;4935124;29;20644;-62
2024/01/14 01:15:06;;;;;;;0.40;0.40;;;-2.60;59.60;;;;;;4935286;29;20410;-62
2024/01/14 01:17:32;;;;;;;0.50;0.50;;;-2.60;59.20;;;;;;4935006;29;20442;-62
2024/01/14 01:19:59;;;;;;;0.52;0.52;;;-2.60;58.90;;;;;;4935043;29;20178;-62
2024/01/14 01:22:25;;;;;;;0.50;0.50;;;-2.50;60.00;;;;;;4934939;29;20616;-62
2024/01/14 01:24:50;;;;;;;0.40;0.40;;;-2.50;60.60;;;;;;4935120;29;20209;-62
2024/01/14 01:27:16;;;;;;;0.33;0.33;;;-2.50;61.20;;;;;;4934966;29;20261;-63
2024/01/14 01:29:43;;;;;;;0.40;0.40;;;-2.50;60.50;;;;;;4935058;29;20182;-63
2024/01/14 01:32:09;;;;;;;0.40;0.40;;;-2.60;60.90;;;;;;4934693;29;20193;-62
2024/01/14 01:34:35;;;;;;;0.88;0.88;;;-2.70;61.20;;;;;;4934767;29;20273;-62
2024/01/14 01:37:00;;;;;;;0.40;0.40;;;-2.70;62.00;;;;;;4934784;29;20253;-62
2024/01/14 01:39:26;;;;;;;0.53;0.53;;;-2.60;61.30;;;;;;4934816;29;20233;-62
2024/01/14 01:41:52;;;;;;;0.40;0.40;;;-2.60;60.20;;;;;;4934588;29;20188;-62
2024/01/14 01:44:18;;;;;;;0.40;0.40;;;-2.60;60.40;;;;;;4934859;29;20240;-62
2024/01/14 01:46:44;;;;;;;0.40;0.40;;;-2.60;60.90;;;;;;4934733;29;20684;-63
2024/01/14 01:49:10;;;;;;;0.50;0.50;;;-2.60;61.10;;;;;;4934652;29;20209;-63
2024/01/14 01:51:40;;;;;;;0.52;0.52;;;-2.60;61.90;;;;;;4934407;29;20820;-62
2024/01/14 01:54:07;;;;;;;0.40;0.40;;;-2.60;61.60;;;;;;4934831;29;20178;-62
2024/01/14 01:56:33;;;;;;;0.40;0.40;;;-2.60;61.10;;;;;;4934386;29;20590;-63
2024/01/14 01:58:59;;;;;;;0.40;0.40;;;-2.70;60.40;;;;;;4934495;29;20205;-63
2024/01/14 02:01:25;;;;;;;0.50;0.50;;;-2.80;59.80;;;;;;4934242;29;20904;-62
2024/01/14 02:03:52;;;;;;;0.40;0.40;;;-2.80;58.70;;;;;;4934563;29;20182;-62
2024/01/14 02:06:20;;;;;;;0.40;0.40;;;-2.70;59.20;;;;;;4934562;29;20489;-62
2024/01/14 02:08:47;;;;;;;0.40;0.40;;;-2.70;59.50;;;;;;4934444;29;20180;-61
2024/01/14 02:11:12;;;;;;;0.40;0.40;;;-2.70;59.40;;;;;;4934197;29;20790;-60
2024/01/14 02:13:38;;;;;;;0.40;0.40;;;-2.70;58.60;;;;;;4929432;29;20186;-62
2024/01/14 02:16:04;;;;;;;0.40;0.40;;;-2.60;58.10;;;;;;4930905;29;20277;-61
2024/01/14 02:18:30;;;;;;;0.40;0.40;;;-2.60;58.00;;;;;;4925781;29;20565;-62
2024/01/14 02:20:57;;;;;;;0.40;0.40;;;-2.60;58.10;;;;;;4931268;29;20210;-62
2024/01/14 02:23:27;;;;;;;0.40;0.40;;;-2.60;58.50;;;;;;4934287;29;20182;-62
2024/01/14 02:25:52;;;;;;;0.30;0.30;;;-2.50;59.10;;;;;;4917226;29;20284;-62
2024/01/14 02:28:20;;;;;;;0.33;0.33;;;-2.50;58.20;;;;;;4926407;29;20737;-62
2024/01/14 02:30:47;;;;;;;0.40;0.40;;;-2.60;57.90;;;;;;4915031;29;20179;-62
2024/01/14 02:33:13;;;;;;;0.40;0.40;;;-2.50;57.80;;;;;;4915182;29;20187;-62
2024/01/14 02:35:39;;;;;;;0.40;0.40;;;-2.60;58.40;;;;;;4915157;29;20199;-62
2024/01/14 02:38:06;;;;;;;0.40;0.40;;;-2.70;58.50;;;;;;4919055;29;20214;-62
2024/01/14 02:40:34;;;;;;;0.60;0.60;;;-2.70;59.10;;;;;;4924379;29;20205;-60
2024/01/14 02:43:00;;;;;;;0.40;0.40;;;-2.70;59.30;;;;;;4937208;29;20704;-62
2024/01/14 02:45:30;;;;;;;0.30;0.30;;;-2.50;58.40;;;;;;4935189;29;20183;-62
2024/01/14 02:47:56;;;;;;;0.40;0.40;;;-2.50;57.80;;;;;;4938029;29;20192;-62
2024/01/14 02:50:22;;;;;;;0.40;0.40;;;-2.50;57.10;;;;;;4937883;29;20210;-62
2024/01/14 02:52:47;;;;;;;0.40;0.40;;;-2.40;57.20;;;;;;4937631;29;20218;-62
2024/01/14 02:55:14;;;;;;;0.40;0.40;;;-2.40;58.00;;;;;;4923602;29;20186;-61
2024/01/14 02:57:39;;;;;;;0.50;0.50;;;-2.50;57.80;;;;;;4918210;29;20234;-62
2024/01/14 03:00:10;;;;;;;0.40;0.40;;;-2.50;58.30;;;;;;4925945;29;20626;-62
2024/01/14 03:02:37;;;;;;;0.40;0.40;;;-2.50;58.70;;;;;;4927000;29;20414;-62
2024/01/14 03:05:03;;;;;;;0.40;0.40;;;-2.40;58.90;;;;;;4925337;29;20167;-62
2024/01/14 03:07:30;;;;;;;0.30;0.30;;;-2.40;58.90;;;;;;4927589;29;20202;-59
2024/01/14 03:09:56;;;;;;;1.60;1.50;;;-2.50;59.10;;;;;;4928394;29;20254;-62
2024/01/14 03:12:21;;;;;;;0.40;0.40;;;-2.40;59.50;;;;;;4926498;29;20183;-62
2024/01/14 03:14:47;;;;;;;0.40;0.40;;;-2.40;59.60;;;;;;4927970;29;20189;-62
2024/01/14 03:17:13;;;;;;;0.40;0.40;;;-2.50;59.10;;;;;;4928895;29;20285;-62
2024/01/14 03:19:38;;;;;;;0.40;0.40;;;-2.50;58.10;;;;;;4925860;29;20284;-62
2024/01/14 03:22:04;;;;;;;0.30;0.30;;;-2.50;56.90;;;;;;4927635;29;20171;-62
2024/01/14 03:24:30;;;;;;;0.40;0.40;;;-2.50;56.20;;;;;;4926868;29;20211;-62
2024/01/14 03:26:55;;;;;;;0.40;0.40;;;-2.50;56.60;;;;;;4928386;29;20281;-62
2024/01/14 03:29:21;;;;;;;0.40;0.40;;;-2.50;57.00;;;;;;4925940;29;20178;-62
2024/01/14 03:31:47;;;;;;;0.30;0.30;;;-2.40;57.70;;;;;;4926563;29;20310;-62
2024/01/14 03:34:13;;;;;;;0.30;0.30;;;-2.40;58.20;;;;;;4925494;29;20682;-62
2024/01/14 03:36:39;;;;;;;0.40;0.40;;;-2.40;58.70;;;;;;4911151;29;20485;-62
2024/01/14 03:39:05;;;;;;;0.33;0.33;;;-2.40;58.80;;;;;;4928956;29;20195;-62
2024/01/14 03:41:31;;;;;;;0.50;0.50;;;-2.50;59.00;;;;;;4926361;29;20178;-63
2024/01/14 03:43:57;;;;;;;0.40;0.40;;;-2.50;58.90;;;;;;4926545;29;20185;-63
2024/01/14 03:46:22;;;;;;;0.40;0.40;;;-2.50;59.50;;;;;;4917908;29;20577;-62
2024/01/14 03:48:48;;;;;;;0.67;0.67;;;-2.50;59.50;;;;;;4917779;29;20566;-62
2024/01/14 03:51:14;;;;;;;0.30;0.30;;;-2.50;58.80;;;;;;4917130;29;20505;-62
2024/01/14 03:53:39;;;;;;;0.40;0.40;;;-2.50;57.80;;;;;;4917740;29;20642;-62
2024/01/14 03:56:05;;;;;;;0.30;0.30;;;-2.50;55.90;;;;;;4917558;29;20509;-62
2024/01/14 03:58:31;;;;;;;0.40;0.40;;;-2.50;55.40;;;;;;4917547;29;20254;-62
2024/01/14 04:00:56;;;;;;;0.50;0.50;;;-2.50;56.70;;;;;;4917668;29;20178;-62
2024/01/14 04:03:22;;;;;;;0.40;0.40;;;-2.60;56.50;;;;;;4917420;29;20175;-62
2024/01/14 04:05:48;;;;;;;1.03;0.80;;;-2.60;58.30;;;;;;4917542;29;20242;-63
2024/01/14 04:08:13;;;;;;;0.30;0.30;;;-2.60;58.60;;;;;;4917413;29;20179;-63
2024/01/14 04:10:39;;;;;;;0.40;0.40;;;-2.60;58.60;;;;;;4917341;29;20235;-63
2024/01/14 04:13:05;;;;;;;0.50;0.50;;;-2.60;58.70;;;;;;4917336;29;20190;-62
2024/01/14 04:15:30;;;;;;;0.30;0.30;;;-2.50;58.30;;;;;;4917345;29;20202;-62
2024/01/14 04:17:56;;;;;;;0.40;0.40;;;-2.50;57.60;;;;;;4917301;29;20643;-62
2024/01/14 04:20:22;;;;;;;0.40;0.40;;;-2.50;56.40;;;;;;4917117;29;20558;-62
2024/01/14 04:22:48;;;;;;;0.50;0.50;;;-2.50;56.00;;;;;;4917020;29;20538;-62
2024/01/14 04:25:14;;;;;;;0.40;0.40;;;-2.50;55.40;;;;;;4917334;29;20434;-62
2024/01/14 04:27:39;;;;;;;0.40;0.40;;;-2.50;55.10;;;;;;4917335;29;20207;-62
2024/01/14 04:30:06;;;;;;;0.40;0.40;;;-2.50;55.00;;;;;;4917040;29;20793;-63
2024/01/14 04:32:32;;;;;;;0.40;0.40;;;-2.50;55.20;;;;;;4917261;29;20182;-62
2024/01/14 04:34:57;;;;;;;0.50;0.50;;;-2.40;55.40;;;;;;4917097;29;20559;-62
2024/01/14 04:37:23;;;;;;;0.40;0.40;;;-2.40;55.70;;;;;;4917325;29;20199;-62
2024/01/14 04:39:49;;;;;;;0.37;0.37;;;-2.40;54.50;;;;;;4916890;29;20195;-62
2024/01/14 04:42:14;;;;;;;0.40;0.40;;;-2.50;55.30;;;;;;4916644;29;20599;-62
2024/01/14 04:44:40;;;;;;;0.57;0.57;;;-2.50;56.70;;;;;;4916950;29;20206;-62
2024/01/14 04:47:05;;;;;;;0.40;0.40;;;-2.50;57.20;;;;;;4916970;29;20198;-62
2024/01/14 04:49:31;;;;;;;0.43;0.43;;;-2.40;57.20;;;;;;4916775;29;20712;-62
2024/01/14 04:51:57;;;;;;;0.47;0.47;;;-2.50;56.60;;;;;;4916418;29;20170;-62
2024/01/14 04:54:22;;;;;;;0.40;0.40;;;-2.40;55.60;;;;;;4916710;29;20182;-62
2024/01/14 04:56:48;;;;;;;0.40;0.40;;;-2.40;54.70;;;;;;4916441;29;20217;-62
2024/01/14 04:59:14;;;;;;;0.40;0.40;;;-2.40;54.90;;;;;;4916517;29;20210;-62
2024/01/14 05:01:39;;;;;;;0.60;0.60;;;-2.50;55.20;;;;;;4915652;29;20465;-62
2024/01/14 05:04:05;;;;;;;0.40;0.40;;;-2.50;55.50;;;;;;4916508;29;20179;-62
2024/01/14 05:06:33;;;;;;;0.40;0.40;;;-2.50;54.90;;;;;;4916404;29;20206;-62
2024/01/14 05:08:58;;;;;;;0.40;0.40;;;-2.50;53.90;;;;;;4916434;29;20201;-62
2024/01/14 05:11:24;;;;;;;0.57;0.57;;;-2.40;53.10;;;;;;4916321;29;20187;-63
2024/01/14 05:13:49;;;;;;;0.50;0.50;;;-2.40;52.60;;;;;;4916378;29;20555;-62
2024/01/14 05:16:15;;;;;;;0.30;0.30;;;-2.50;53.80;;;;;;4916260;29;20689;-62
2024/01/14 05:18:41;;;;;;;0.40;0.40;;;-2.50;55.00;;;;;;4916188;29;20210;-62
2024/01/14 05:21:09;;;;;;;0.60;0.60;;;-2.50;55.10;;;;;;4915990;29;20171;-63
2024/01/14 05:23:35;;;;;;;0.50;0.50;;;-2.40;55.00;;;;;;4916076;29;20578;-62
2024/01/14 05:26:04;;;;;;;0.40;0.40;;;-2.50;54.90;;;;;;4916319;29;20285;-62
2024/01/14 05:28:29;;;;;;;0.40;0.40;;;-2.60;55.70;;;;;;4916099;29;20429;-62
2024/01/14 05:30:55;;;;;;;0.40;0.40;;;-2.60;57.20;;;;;;4915868;29;20204;-62
2024/01/14 05:33:21;;;;;;;0.40;0.40;;;-2.50;58.30;;;;;;4915923;29;20179;-62
2024/01/14 05:35:46;;;;;;;0.40;0.40;;;-2.50;58.20;;;;;;4915765;29;20238;-62
2024/01/14 05:38:12;;;;;;;0.40;0.40;;;-2.50;58.40;;;;;;4916051;29;20685;-62
2024/01/14 05:40:38;;;;;;;0.40;0.40;;;-2.50;58.40;;;;;;4915718;29;20650;-62
2024/01/14 05:43:04;;;;;;;0.50;0.50;;;-2.50;57.60;;;;;;4915780;29;20182;-62
2024/01/14 05:45:30;;;;;;;0.40;0.40;;;-2.60;57.10;;;;;;4915764;29;20555;-63
2024/01/14 05:47:55;;;;;;;0.40;0.40;;;-2.60;56.50;;;;;;4915782;29;20252;-62
2024/01/14 05:50:21;;;;;;;0.40;0.40;;;-2.60;56.60;;;;;;4915673;29;20206;-62
2024/01/14 05:52:47;;;;;;;0.40;0.40;;;-2.60;56.20;;;;;;4915713;29;20183;-62
2024/01/14 05:55:13;;;;;;;0.43;0.43;;;-2.60;56.70;;;;;;4915715;29;20273;-62
2024/01/14 05:57:39;;;;;;;0.40;0.40;;;-2.60;56.90;;;;;;4915549;29;20349;-62
2024/01/14 06:00:05;;;;;;;0.40;0.40;;;-2.50;56.00;;;;;;4915620;29;20507;-62
2024/01/14 06:02:31;;;;;;;0.60;0.60;;;-2.50;55.60;;;;;;4915432;29;20554;-62
2024/01/14 06:04:56;;;;;;;1.37;1.23;;;-2.50;55.20;;;;;;4915474;29;20175;-62
2024/01/14 06:07:22;;;;;;;0.77;0.77;;;-2.60;55.70;;;;;;4915463;29;20195;-62
2024/01/14 06:09:48;;;;;;;0.40;0.40;;;-2.60;56.50;;;;;;4915543;29;20181;-62
2024/01/14 06:12:15;;;;;;;0.40;0.40;;;-2.60;56.80;;;;;;4915193;29;20179;-62
2024/01/14 06:14:40;;;;;;;0.40;0.40;;;-2.60;57.10;;;;;;4915411;29;20167;-62
2024/01/14 06:17:06;;;;;;;0.30;0.30;;;-2.60;56.60;;;;;;4915313;29;20645;-62
2024/01/14 06:19:31;;;;;;;0.40;0.40;;;-2.60;56.40;;;;;;4915238;29;20208;-62
2024/01/14 06:21:59;;;;;;;0.40;0.40;;;-2.50;56.40;;;;;;4915168;29;20175;-62
2024/01/14 06:24:25;;;;;;;0.50;0.50;;;-2.60;56.80;;;;;;4915499;29;20190;-62
2024/01/14 06:26:52;;;;;;;0.40;0.40;;;-2.50;56.20;;;;;;4915264;29;20665;-62
2024/01/14 06:29:18;;;;;;;0.30;0.30;;;-2.50;56.20;;;;;;4915397;29;20178;-62
2024/01/14 06:31:45;;;;;;;0.50;0.50;;;-2.50;55.70;;;;;;4915053;29;20187;-62
2024/01/14 06:34:11;;;;;;;0.40;0.40;;;-2.60;55.90;;;;;;4915164;29;20917;-62
2024/01/14 06:36:37;;;;;;;0.40;0.40;;;-2.70;57.20;;;;;;4915417;29;20214;-62
2024/01/14 06:39:02;;;;;;;0.40;0.40;;;-2.80;57.50;;;;;;4915131;29;20214;-62
2024/01/14 06:41:28;;;;;;;0.40;0.40;;;-2.80;57.50;;;;;;4914961;29;20413;-63
2024/01/14 06:43:54;;;;;;;0.40;0.40;;;-2.70;56.20;;;;;;4915172;29;20179;-62
2024/01/14 06:46:19;;;;;;;0.40;0.40;;;-2.60;57.20;;;;;;4915120;29;20195;-63
2024/01/14 06:48:45;;;;;;;0.50;0.50;;;-2.60;58.00;;;;;;4915058;29;20202;-62
2024/01/14 06:51:11;;;;;;;0.40;0.40;;;-2.70;57.00;;;;;;4915098;29;20556;-63
2024/01/14 06:53:36;;;;;;;0.40;0.40;;;-2.70;57.20;;;;;;4915152;29;20654;-63
2024/01/14 06:56:02;;;;;;;0.50;0.50;;;-2.70;57.40;;;;;;4914935;29;20729;-62
2024/01/14 06:58:28;;;;;;;0.40;0.40;;;-2.70;57.00;;;;;;4915079;29;20282;-62
2024/01/14 07:00:54;;;;;;;0.40;0.40;;;-2.70;56.90;;;;;;4914851;29;20175;-62
2024/01/14 07:03:20;;;;;;;0.40;0.40;;;-2.70;56.30;;;;;;4914805;29;20663;-62
2024/01/14 07:05:45;;;;;;;0.40;0.40;;;-2.70;56.10;;;;;;4915123;29;20634;-62
2024/01/14 07:08:11;;;;;;;0.40;0.40;;;-2.70;56.00;;;;;;4914990;29;20185;-62
2024/01/14 07:10:37;;;;;;;0.40;0.40;;;-2.70;55.60;;;;;;4915075;29;20529;-62
2024/01/14 07:13:03;;;;;;;0.50;0.50;;;-2.70;55.40;;;;;;4914867;29;20214;-62
2024/01/14 07:15:28;;;;;;;0.40;0.40;;;-2.70;55.40;;;;;;4914866;29;20419;-62
2024/01/14 07:17:54;;;;;;;0.47;0.47;;;-2.70;55.90;;;;;;4914766;29;20442;-62
2024/01/14 07:20:20;;;;;;;0.40;0.40;;;-2.70;56.80;;;;;;4914773;29;20183;-63
2024/01/14 07:22:45;;;;;;;0.40;0.40;;;-2.70;58.30;;;;;;4914699;29;20186;-62
2024/01/14 07:25:11;;;;;;;0.40;0.40;;;-2.70;58.50;;;;;;4916018;29;20179;-62
2024/01/14 07:27:37;;;;;;;1.85;0.82;;;-2.50;58.10;;;;;;4918164;29;20179;-62
2024/01/14 07:30:06;;;;;;;0.40;0.40;;;-2.50;58.50;;;;;;4918139;29;20193;-62
2024/01/14 07:32:32;;;;;;;0.40;0.40;;;-2.50;57.90;;;;;;4917915;29;20201;-62
2024/01/14 07:34:58;;;;;;;0.30;0.30;;;-2.40;58.20;;;;;;4918137;29;20642;-62
2024/01/14 07:37:24;;;;;;;0.40;0.40;;;-2.40;58.60;;;;;;4918059;29;20195;-62
2024/01/14 07:39:50;;;;;;;0.40;0.40;;;-2.40;59.00;;;;;;4917999;29;20632;-62
2024/01/14 07:42:16;;;;;;;0.40;0.40;;;-2.30;58.90;;;;;;4917775;29;20171;-62
2024/01/14 07:44:42;;;;;;;0.40;0.40;;;-2.30;59.20;;;;;;4917959;29;20406;-62
2024/01/14 07:47:07;;;;;;;0.47;0.47;;;-2.30;59.40;;;;;;4917763;29;20692;-62
2024/01/14 07:49:33;;;;;;;0.40;0.40;;;-2.20;59.40;;;;;;4917813;29;20506;-63
2024/01/14 07:51:59;;;;;;;0.40;0.40;;;-2.10;57.90;;;;;;4917585;29;20246;-62
2024/01/14 07:54:25;;;;;;;0.35;0.35;;;-2.00;57.00;;;;;;4918133;29;20430;-62
2024/01/14 07:56:51;;;;;;;0.40;0.40;;;-2.10;56.60;;;;;;4917670;29;20642;-62
2024/01/14 07:59:20;;;;;;;0.40;0.40;;;-1.90;57.50;;;;;;4917562;29;20190;-61
2024/01/14 08:01:46;;;;;;;0.50;0.50;;;-1.80;57.70;;;;;;4917224;29;20412;-63
2024/01/14 08:04:11;;;;;;;0.53;0.53;;;-1.80;57.60;;;;;;4917744;29;20178;-62
2024/01/14 08:06:37;;;;;;;0.40;0.40;;;-1.80;58.00;;;;;;4917461;29;20434;-63
2024/01/14 08:09:03;;;;;;;0.40;0.40;;;-1.80;58.00;;;;;;4917505;29;20187;-62
2024/01/14 08:11:29;;;;;;;0.40;0.40;;;-1.70;58.10;;;;;;4917259;29;20183;-62
2024/01/14 08:13:54;;;;;;;0.40;0.40;;;-1.60;58.10;;;;;;4917452;29;20551;-62
2024/01/14 08:16:20;;;;;;;0.30;0.30;;;-1.10;59.10;;;;;;4917183;29;20282;-62
2024/01/14 08:18:46;;;;;;;0.40;0.40;;;0.30;59.80;;;;;;4917257;29;20253;-63
2024/01/14 08:21:11;;;;;;;0.40;0.40;;;2.50;58.20;;;;;;4917060;29;20176;-63
2024/01/14 08:23:37;;;;;;;0.93;0.93;;;4.60;55.40;;;;;;4917255;29;20200;-63
2024/01/14 08:26:04;;;;;;;0.60;0.60;;;6.50;50.60;;;;;;4917140;29;20206;-63
2024/01/14 08:28:31;;;;;;;7.82;2.00;;;8.00;47.70;;;;;;4917122;29;20187;-63
2024/01/14 08:30:57;;;;;;;1.47;1.37;;;8.90;45.70;;;;;;4916902;29;20167;-63
2024/01/14 08:33:23;;;;;;;0.40;0.40;;;9.50;43.80;;;;;;4917081;29;20415;-63
2024/01/14 08:35:48;;;;;;;2.37;1.03;;;10.00;41.80;;;;;;4916618;29;20491;-63
2024/01/14 08:38:14;;;;;;;0.80;0.80;;;10.00;39.60;;;;;;4916323;29;20195;-63
2024/01/14 08:40:40;;;;;;;1.03;0.80;;;9.70;41.00;;;;;;4916822;29;20175;-63
2024/01/14 08:43:05;;;;;;;1.70;1.63;;;9.40;41.40;;;;;;4916805;29;20257;-61
2024/01/14 08:45:31;;;;;;;0.70;0.70;;;9.20;41.10;;;;;;4916692;29;20175;-61
2024/01/14 08:47:57;;;;;;;2.43;1.80;;;9.00;41.60;;;;;;4916795;29;20167;-61
2024/01/14 08:50:22;;;;;;;3.23;1.30;;;8.60;41.20;;;;;;4916776;29;20175;-61
2024/01/14 08:52:48;;;;;;;2.30;2.17;;;8.20;40.30;;;;;;4916522;29;20179;-61
2024/01/14 08:55:14;;;;;;;2.57;2.40;;;8.00;40.10;;;;;;4916559;29;20167;-61
2024/01/14 08:57:39;;;;;;;3.80;3.50;;;7.90;41.20;;;;;;4916652;29;20179;-61
2024/01/14 09:00:06;;;;;;;10.00;4.90;;;7.80;42.20;;;;;;4916357;29;20584;-61
2024/01/14 09:02:32;;;;;;;8.97;6.63;;;7.80;43.10;;;;;;4916219;29;20250;-61
2024/01/14 09:04:58;;;;;;;4.50;3.67;;;8.00;43.60;;;;;;4946091;29;20881;-61
2024/01/14 09:07:25;;;;;;;5.83;4.73;;;8.10;43.50;;;;;;4954534;28;20201;-61
2024/01/14 09:09:50;;;;;;;3.80;3.03;;;8.40;42.20;;;;;;4954510;29;20566;-61
2024/01/14 09:12:18;;;;;;;4.43;4.03;;;8.50;40.90;;;;;;4954205;29;20409;-62
2024/01/14 09:14:44;;;;;;;7.10;3.80;;;8.70;40.70;;;;;;4954028;29;20185;-62
2024/01/14 09:17:11;;;;;;;2.73;2.53;;;8.90;39.80;;;;;;4954253;28;20536;-62
2024/01/14 09:19:37;;;;;;;4.00;3.70;;;9.20;40.60;;;;;;4954345;29;20464;-62
2024/01/14 09:22:03;;;;;;;3.37;2.63;;;9.90;41.00;;;;;;4954079;29;20409;-63
2024/01/14 09:24:29;;;;;;;7.83;3.20;;;10.60;39.10;;;;;;4954401;29;20678;-62
2024/01/14 09:26:54;;;;;;;2.67;2.20;;;11.20;37.70;;;;;;4954163;28;20345;-62
2024/01/14 09:29:21;;;;;;;4.03;3.47;;;11.70;37.20;;;;;;4954163;29;21012;-62
2024/01/14 09:31:47;;;;;;;3.47;3.13;;;12.10;37.40;;;;;;4953934;29;20170;-62
2024/01/14 09:34:12;;;;;;;3.60;2.73;;;12.60;36.90;;;;;;4954134;29;20513;-62
2024/01/14 09:36:41;;;;;;;4.70;3.40;;;13.20;36.20;;;;;;4954055;28;20202;-63
2024/01/14 09:39:10;;;;;;;5.27;3.73;;;13.60;35.30;;;;;;4953943;29;20198;-63
2024/01/14 09:41:57;;;;;;;4.67;3.23;;;14.00;34.60;;;;;;4953655;29;20775;-64
2024/01/14 09:44:23;;;;;;;4.97;3.43;;;14.60;34.80;;;;;;4954180;29;20419;-61
2024/01/14 09:46:49;;;;;;;6.17;4.63;;;15.50;33.60;;;;;;4953727;28;20937;-63
2024/01/14 09:49:16;;;;;;;6.30;4.20;;;16.30;32.10;;;;;;4953550;28;20174;-64
2024/01/14 09:51:42;;;;;;;6.30;4.53;;;17.20;30.70;;;;;;4953461;29;20383;-64
2024/01/14 09:54:07;;;;;;;8.63;3.90;;;18.00;30.00;;;;;;4953584;29;20933;-63
2024/01/14 09:56:34;;;;;;;6.50;3.13;;;18.70;29.10;;;;;;4942840;28;20305;-64
2024/01/14 09:59:02;;;;;;;3.37;3.07;;;19.30;28.00;;;;;;4934724;29;20214;-64
2024/01/14 10:01:33;;;;;;;3.50;3.10;;;19.80;27.50;;;;;;4934281;29;20421;-66
2024/01/14 10:04:02;;;;;;;3.30;2.50;;;20.20;26.60;;;;;;4934552;29;20415;-64
2024/01/14 10:06:28;;;;;;;3.13;2.00;;;20.40;25.90;;;;;;4934475;29;20440;-64
2024/01/14 10:08:58;;;;;;;2.13;1.73;;;20.70;25.40;;;;;;4934433;29;20425;-64
2024/01/14 10:11:24;;;;;;;2.60;1.60;;;20.90;24.90;;;;;;4934194;29;20406;-64
2024/01/14 10:13:50;;;;;;;1.53;1.43;;;21.00;25.20;;;;;;4934496;29;20857;-64
2024/01/14 10:16:16;;;;;;;1.90;1.80;;;21.00;25.20;;;;;;4934518;29;20330;-64
2024/01/14 10:18:41;;;;;;;2.03;1.80;;;20.80;25.30;;;;;;4934414;29;20469;-64
2024/01/14 10:21:09;;;;;;;1.43;1.33;;;20.30;25.70;;;;;;4934046;29;20472;-64
2024/01/14 10:23:36;;;;;;;3.00;2.70;;;20.00;26.10;;;;;;4934385;29;20178;-63
2024/01/14 10:26:01;;;;;;;1.80;1.37;;;19.90;25.80;;;;;;4934393;29;20457;-62
2024/01/14 10:28:45;;;;;;;6.83;2.13;;;20.00;34.10;;;;;;4934627;29;20873;-60
2024/01/14 10:31:11;;;;;;;4.73;3.40;;;19.80;35.10;;;;;;4934412;29;20540;-61
2024/01/14 10:33:37;;;;;;;3.60;3.30;;;19.10;34.60;;;;;;4934451;29;20395;-62
2024/01/14 10:36:09;;;;;;;1.90;1.70;;;18.40;30.50;;;;;;4934159;29;20455;-61
2024/01/14 10:38:36;;;;;;;5.33;2.90;;;17.50;27.10;;;;;;4934270;29;20209;-62
2024/01/14 10:41:03;;;;;;;2.87;2.67;;;16.80;27.30;;;;;;4933965;29;20408;-62
2024/01/14 10:43:29;;;;;;;5.80;2.50;;;16.70;27.10;;;;;;4934143;29;20786;-61
2024/01/14 10:45:57;;;;;;;1.53;1.43;;;16.30;27.10;;;;;;4934167;29;20462;-62
2024/01/14 10:48:27;;;;;;;1.17;1.17;;;16.10;27.50;;;;;;4934063;29;20428;-62
2024/01/14 10:50:55;;;;;;;1.93;1.80;;;15.80;27.70;;;;;;4934029;29;20425;-62
2024/01/14 10:53:23;;;;;;;1.77;1.03;;;15.70;27.20;;;;;;4934091;29;20409;-62
2024/01/14 10:55:56;;;;;;;2.47;1.67;;;15.60;26.00;;;;;;4933879;29;20453;-62
2024/01/14 10:58:28;;;;;;;2.00;1.20;;;15.30;27.00;;;;;;4916883;29;20456;-62
2024/01/14 11:00:59;;;;;;;2.70;1.63;;;15.10;26.90;;;;;;4936180;29;20480;-62
2024/01/14 11:03:26;;;;;;;0.70;0.70;;;15.10;26.20;;;;;;4938481;29;20407;-60
2024/01/14 11:05:53;;;;;;;1.20;1.10;;;14.90;25.50;;;;;;4938100;29;20488;-60
2024/01/14 11:08:21;;;;;;;1.57;1.17;;;14.70;28.60;;;;;;4938137;29;20964;-60
2024/01/14 11:10:47;;;;;;;1.53;0.90;;;14.00;29.60;;;;;;4938114;29;20818;-60
2024/01/14 11:13:28;;;;;;;0.90;0.80;;;13.10;27.30;;;;;;4937914;29;20481;-60
2024/01/14 11:16:07;;;;;;;1.20;1.03;;;12.50;29.00;;;;;;4938189;29;20458;-60
2024/01/14 11:18:43;;;;;;;0.97;0.80;;;11.80;31.10;;;;;;4937628;29;20464;-60
2024/01/14 11:21:46;;;;;;;2.20;0.80;;;11.00;27.40;;;;;;4937906;29;20402;-60
2024/01/14 11:24:12;;;;;;;1.83;0.80;;;10.20;28.80;;;;;;4937994;29;20390;-60
2024/01/14 11:26:38;;;;;;;0.60;0.60;;;9.50;31.40;;;;;;4937500;29;20435;-61
2024/01/14 11:29:04;;;;;;;1.30;0.75;;;9.10;33.40;;;;;;4937372;29;20241;-60
2024/01/14 11:32:04;;;;;;;1.03;0.93;;;8.80;34.50;;;;;;4937133;29;20228;-60
2024/01/14 11:34:48;;;;;;;0.40;0.40;;;8.30;31.90;;;;;;4937304;29;20189;-60
2024/01/14 11:37:36;;;;;;;0.40;0.40;;;8.10;35.10;;;;;;4937354;29;20203;-60
2024/01/14 11:40:11;;;;;;;0.40;0.40;;;7.90;35.20;;;;;;4937096;29;20206;-60
2024/01/14 11:42:42;;;;;;;0.68;0.60;;;7.70;35.60;;;;;;4936913;29;20188;-60
2024/01/14 11:45:32;;;;;;;2.15;0.63;;;7.60;34.20;;;;;;4937462;29;20227;-60
2024/01/14 11:47:58;;;;;;;0.40;0.40;;;7.40;34.70;;;;;;4937533;29;20183;-60
2024/01/14 11:50:25;;;;;;;0.70;0.70;;;7.30;35.00;;;;;;4937746;29;20247;-60
2024/01/14 11:52:53;;;;;;;0.50;0.50;;;7.30;35.80;;;;;;4940029;29;20610;-59
2024/01/14 11:55:24;;;;;;;0.40;0.40;;;7.20;36.90;;;;;;4956051;28;20184;-59
2024/01/14 11:57:53;;;;;;;0.40;0.40;;;7.10;36.10;;;;;;4955929;29;20230;-59
2024/01/14 12:00:24;;;;;;;0.40;0.40;;;7.10;34.40;;;;;;4956366;29;20310;-60
2024/01/14 12:03:05;;;;;;;0.40;0.40;;;6.90;35.00;;;;;;4956083;29;20186;-60
2024/01/14 12:05:31;;;;;;;0.80;0.43;;;6.70;35.30;;;;;;4956073;28;20296;-60
2024/01/14 12:08:00;;;;;;;0.37;0.37;;;6.60;34.10;;;;;;4944297;29;20272;-59
2024/01/14 12:10:28;;;;;;;0.65;0.65;;;6.50;33.60;;;;;;4926211;29;20473;-60
2024/01/14 12:12:55;;;;;;;0.52;0.52;;;6.30;33.60;;;;;;4926126;29;20330;-60
2024/01/14 12:15:21;;;;;;;2.80;0.85;;;6.20;34.40;;;;;;4925136;29;20238;-59
2024/01/14 12:18:14;;;;;;;0.87;0.87;;;6.10;34.10;;;;;;4917546;29;20254;-60
2024/01/14 12:20:39;;;;;;;0.40;0.40;;;6.00;30.70;;;;;;4915459;29;20567;-60
2024/01/14 12:23:05;;;;;;;3.70;0.40;;;6.00;31.20;;;;;;4917286;29;20179;-60
2024/01/14 12:25:32;;;;;;;0.50;0.40;;;5.80;32.00;;;;;;4917347;29;20171;-60
2024/01/14 12:27:58;;;;;;;0.40;0.40;;;5.70;31.30;;;;;;4917790;29;20171;-59
2024/01/14 12:30:32;;;;;;;0.73;0.65;;;5.60;32.20;;;;;;4917110;29;20254;-59
2024/01/14 12:33:03;;;;;;;0.40;0.40;;;5.40;33.30;;;;;;4917383;29;20183;-59
2024/01/14 12:35:34;;;;;;;0.70;0.70;;;5.40;32.40;;;;;;4917138;29;20175;-60
2024/01/14 12:38:00;;;;;;;0.50;0.50;;;5.30;32.50;;;;;;4917301;29;20194;-59
2024/01/14 12:40:26;;;;;;;0.50;0.50;;;5.30;34.30;;;;;;4916929;29;20171;-59
2024/01/14 12:42:52;;;;;;;0.40;0.40;;;5.00;35.60;;;;;;4917134;29;20214;-60
2024/01/14 12:45:18;;;;;;;0.50;0.50;;;4.70;35.10;;;;;;4916941;29;20594;-59
2024/01/14 12:47:43;;;;;;;0.40;0.40;;;4.50;35.10;;;;;;4917081;29;20442;-60